Time;durP1;ratioP1;P1;durP2;ratioP2;P2;SDS_P1;SDS_P2;PMS_P1;PMS_P2;Temp;Humidity;BMP_temperature;BMP_pressure;BME280_temperature;BME280_humidity;BME280_pressure;Samples;Min_cycle;Max_cycle;Signal;HPM_P1;HPM_P2
2022/01/24 00:00:21;;;;;;;27.25;17.38;;;5.40;99.90;;;;;;5031924;28;20121;-85
2022/01/24 00:02:47;;;;;;;23.83;14.40;;;5.40;99.90;;;;;;5013701;28;20041;-84
2022/01/24 00:05:13;;;;;;;21.88;13.82;;;5.30;99.90;;;;;;5031596;28;20021;-85
2022/01/24 00:07:39;;;;;;;23.75;12.75;;;5.10;99.90;;;;;;5031652;28;20365;-84
2022/01/24 00:10:12;;;;;;;23.73;14.27;;;5.00;99.90;;;;;;5013978;28;20028;-85
2022/01/24 00:16:14;;;;;;;21.30;12.85;;;5.00;99.90;;;;;;5031684;28;20036;-84
2022/01/24 00:28:19;;;;;;;29.25;15.45;;;5.40;99.90;;;;;;5028755;28;20033;-85
2022/01/24 00:31:02;;;;;;;30.05;18.17;;;5.50;99.90;;;;;;5031821;28;20032;-85
2022/01/24 00:34:12;;;;;;;25.08;13.25;;;5.50;99.90;;;;;;5012314;28;20107;-84
2022/01/24 00:37:27;;;;;;;17.80;12.18;;;5.50;99.90;;;;;;5013442;28;20466;-85
2022/01/24 00:47:29;;;;;;;22.80;12.77;;;5.30;99.90;;;;;;5031002;28;20028;-84
2022/01/24 00:53:15;;;;;;;19.75;8.93;;;5.50;99.90;;;;;;5031386;28;20405;-86
2022/01/24 00:56:06;;;;;;;11.15;6.40;;;5.70;99.90;;;;;;5030965;28;20029;-85
2022/01/24 00:58:54;;;;;;;19.77;11.07;;;5.80;99.90;;;;;;5030980;28;20064;-85
2022/01/24 01:02:16;;;;;;;19.85;12.65;;;5.90;99.90;;;;;;5028844;28;20022;-85
2022/01/24 01:07:06;;;;;;;20.52;10.40;;;5.70;99.90;;;;;;5031326;28;20159;-85
2022/01/24 01:18:45;;;;;;;7.85;5.05;;;6.30;99.90;;;;;;5029557;28;20040;-85
2022/01/24 01:32:07;;;;;;;7.07;5.20;;;6.50;99.90;;;;;;4946292;28;20098;-85
2022/01/24 01:57:52;;;;;;;6.05;3.90;;;6.70;99.90;;;;;;5026757;28;20542;-85
2022/01/24 02:00:37;;;;;;;5.65;3.65;;;6.70;99.90;;;;;;5011120;28;20044;-85
2022/01/24 02:03:17;;;;;;;8.38;3.60;;;6.80;99.90;;;;;;5012634;28;20040;-85
2022/01/24 02:05:59;;;;;;;6.55;3.45;;;6.80;99.90;;;;;;5030345;28;20030;-85
2022/01/24 02:19:47;;;;;;;4.75;3.20;;;6.80;99.90;;;;;;5007445;28;20515;-85
2022/01/24 02:58:36;;;;;;;5.47;3.63;;;6.10;99.90;;;;;;4866176;29;20098;-85
2022/01/24 03:05:10;;;;;;;5.93;3.20;;;5.80;99.90;;;;;;4849097;29;20126;-85
2022/01/24 03:15:24;;;;;;;6.75;3.40;;;5.40;99.90;;;;;;4802379;29;20057;-86
2022/01/24 03:56:43;;;;;;;5.90;3.58;;;5.00;99.90;;;;;;4821175;29;20040;-85
2022/01/24 04:06:03;;;;;;;4.75;3.10;;;5.00;99.90;;;;;;4957854;28;20515;-84
2022/01/24 04:08:57;;;;;;;3.42;2.95;;;5.00;99.90;;;;;;5006214;28;20103;-85
2022/01/24 04:11:42;;;;;;;4.47;3.30;;;5.00;99.90;;;;;;5008819;28;20071;-84
2022/01/24 05:28:27;;;;;;;6.68;4.43;;;4.60;99.90;;;;;;4928940;29;20066;-83
2022/01/24 05:31:24;;;;;;;5.57;4.97;;;4.50;99.90;;;;;;4922107;29;20047;-82
2022/01/24 05:33:57;;;;;;;6.70;4.45;;;4.50;99.90;;;;;;4909202;29;20415;-83
2022/01/24 05:36:52;;;;;;;6.78;4.18;;;4.50;99.90;;;;;;4917546;29;20123;-83
2022/01/24 05:47:57;;;;;;;6.70;4.53;;;4.40;99.90;;;;;;4913108;29;20091;-84
2022/01/24 05:54:19;;;;;;;7.78;4.80;;;4.40;99.90;;;;;;4907507;28;20087;-84
2022/01/24 06:00:56;;;;;;;6.18;4.88;;;4.50;99.90;;;;;;4903409;29;20499;-83
2022/01/24 06:04:03;;;;;;;6.65;5.20;;;4.50;99.90;;;;;;4873778;29;20045;-83
2022/01/24 06:12:46;;;;;;;9.52;5.35;;;4.60;99.90;;;;;;4837622;29;20133;-85
2022/01/24 06:15:16;;;;;;;7.78;5.97;;;4.70;99.90;;;;;;4869137;29;20045;-84
2022/01/24 06:17:45;;;;;;;7.00;4.95;;;4.70;99.90;;;;;;4885102;29;20080;-84
2022/01/24 06:20:33;;;;;;;6.95;5.22;;;4.80;99.90;;;;;;4914703;28;20070;-83
2022/01/24 06:26:22;;;;;;;;;;;;;;;;;;;;;
2022/01/24 06:28:51;;;;;;;6.22;5.15;;;5.10;99.90;;;;;;5033155;28;20034;-83
2022/01/24 06:31:34;;;;;;;5.80;5.05;;;5.20;99.90;;;;;;5016112;28;20028;-83
2022/01/24 06:34:21;;;;;;;5.90;5.25;;;5.40;99.90;;;;;;5030274;28;20060;-83
2022/01/24 06:40:25;;;;;;;8.63;5.93;;;5.60;99.90;;;;;;5004143;28;20087;-83
2022/01/24 06:42:53;;;;;;;10.47;5.77;;;5.70;99.90;;;;;;5029368;28;20535;-83
2022/01/24 06:48:59;;;;;;;9.07;5.95;;;5.90;99.90;;;;;;4991148;28;20044;-83
2022/01/24 06:51:30;;;;;;;7.55;5.28;;;5.90;99.90;;;;;;5001424;28;20448;-84
2022/01/24 06:53:59;;;;;;;6.40;5.57;;;6.00;99.90;;;;;;5010930;28;20037;-84
2022/01/24 06:56:33;;;;;;;8.07;5.53;;;6.00;99.90;;;;;;5025509;28;20029;-84
2022/01/24 06:59:08;;;;;;;7.15;5.47;;;6.10;99.90;;;;;;5032383;28;20079;-84
2022/01/24 07:01:40;;;;;;;7.72;5.88;;;6.10;99.90;;;;;;5033193;28;20499;-83
2022/01/24 07:04:22;;;;;;;10.02;5.93;;;6.20;99.90;;;;;;5032462;28;20104;-84
2022/01/24 07:06:53;;;;;;;8.80;5.60;;;6.20;99.90;;;;;;5027100;28;20037;-84
2022/01/24 07:09:22;;;;;;;9.85;5.88;;;6.30;99.90;;;;;;5032989;28;20025;-85
2022/01/24 07:11:54;;;;;;;12.07;6.00;;;6.30;99.90;;;;;;5032019;28;20061;-84
2022/01/24 07:14:23;;;;;;;9.48;5.95;;;6.40;99.90;;;;;;5004539;28;20049;-83
2022/01/24 07:19:32;;;;;;;7.93;5.47;;;6.50;99.90;;;;;;5032843;28;20546;-84
2022/01/24 07:22:05;;;;;;;7.35;5.70;;;6.50;99.90;;;;;;5031524;28;20037;-85
2022/01/24 07:24:32;;;;;;;8.52;6.03;;;6.50;99.90;;;;;;5012277;28;20034;-85
2022/01/24 07:26:59;;;;;;;7.78;5.85;;;6.60;99.90;;;;;;5008799;28;20034;-84
2022/01/24 07:29:31;;;;;;;9.93;5.35;;;6.60;99.90;;;;;;5013281;28;20052;-84
2022/01/24 07:32:00;;;;;;;;;;;6.60;99.90;;;;;;5031174;28;20037;-82
2022/01/24 07:34:29;;;;;;;7.95;5.60;;;6.70;99.90;;;;;;5032898;28;19924;-86
2022/01/24 07:37:04;;;;;;;7.38;6.07;;;6.70;99.90;;;;;;5015336;28;20037;-84
2022/01/24 07:39:33;;;;;;;6.68;5.00;;;6.80;99.90;;;;;;5031136;28;20022;-83
2022/01/24 07:42:04;;;;;;;8.07;5.60;;;6.80;99.90;;;;;;5032534;28;20018;-83
2022/01/24 07:44:29;;;;;;;6.68;5.85;;;6.90;99.90;;;;;;5029698;28;20052;-83
2022/01/24 07:46:59;;;;;;;8.27;5.85;;;6.90;99.90;;;;;;5029098;28;20029;-83
2022/01/24 07:49:31;;;;;;;8.50;6.05;;;7.00;99.90;;;;;;5028536;28;20049;-83
2022/01/24 07:55:02;;;;;;;7.82;6.15;;;7.10;99.90;;;;;;4989095;28;20166;-83
2022/01/24 07:57:28;;;;;;;8.13;5.95;;;7.10;99.90;;;;;;5020642;28;20052;-82
2022/01/24 07:59:54;;;;;;;10.27;6.53;;;7.10;99.90;;;;;;5029516;28;20037;-82
2022/01/24 08:02:20;;;;;;;9.55;6.82;;;7.20;99.90;;;;;;5030559;28;20056;-82
2022/01/24 08:04:46;;;;;;;9.55;7.40;;;7.20;99.90;;;;;;5030233;28;20056;-82
2022/01/24 08:07:15;;;;;;;8.70;6.70;;;7.30;99.90;;;;;;5029367;28;20053;-82
2022/01/24 08:10:03;;;;;;;8.32;6.75;;;7.30;99.90;;;;;;5030714;28;20071;-83
2022/01/24 08:12:38;;;;;;;7.95;6.25;;;7.40;99.90;;;;;;5028027;28;20041;-82
2022/01/24 08:15:06;;;;;;;12.05;7.50;;;7.50;99.90;;;;;;5026950;28;20057;-82
2022/01/24 08:17:41;;;;;;;8.70;6.88;;;7.50;99.90;;;;;;5027426;28;20424;-83
2022/01/24 08:20:24;;;;;;;9.07;6.28;;;7.60;99.90;;;;;;5025612;28;20040;-83
2022/01/24 08:22:59;;;;;;;9.75;6.95;;;7.70;99.90;;;;;;5023534;28;20029;-83
2022/01/24 08:25:28;;;;;;;10.20;7.30;;;7.80;99.90;;;;;;5027442;28;20029;-83
2022/01/24 08:28:05;;;;;;;12.75;7.82;;;7.80;99.90;;;;;;5028550;28;20026;-83
2022/01/24 08:30:35;;;;;;;8.98;6.88;;;7.90;99.90;;;;;;5028899;28;20060;-83
2022/01/24 08:33:05;;;;;;;9.93;6.53;;;8.00;99.90;;;;;;5006948;28;20033;-83
2022/01/24 08:35:40;;;;;;;8.48;6.90;;;8.10;99.90;;;;;;5022029;28;20485;-83
2022/01/24 08:38:06;;;;;;;12.32;6.78;;;8.20;99.90;;;;;;5029117;28;20056;-83
2022/01/24 08:40:34;;;;;;;12.75;7.00;;;8.20;99.90;;;;;;5012763;28;20037;-82
2022/01/24 08:43:03;;;;;;;8.10;6.93;;;8.30;99.90;;;;;;4979260;28;1415647;-82
2022/01/24 08:48:32;;;;;;;7.53;6.35;;;8.30;99.90;;;;;;5011052;28;20053;-83
2022/01/24 08:51:03;;;;;;;10.35;6.47;;;8.40;99.90;;;;;;5009718;28;20021;-82
2022/01/24 08:53:44;;;;;;;10.50;6.97;;;8.40;99.90;;;;;;5020216;28;20623;-83
2022/01/24 08:56:19;;;;;;;8.60;6.57;;;8.40;99.90;;;;;;5021505;28;20022;-83
2022/01/24 08:58:54;;;;;;;12.20;6.60;;;8.40;99.90;;;;;;5027854;28;20052;-82
2022/01/24 09:01:20;;;;;;;9.93;6.60;;;8.50;99.90;;;;;;5032715;28;20369;-83
2022/01/24 09:03:49;;;;;;;8.65;6.47;;;8.50;99.90;;;;;;5030809;28;20112;-82
2022/01/24 09:06:19;;;;;;;7.10;6.32;;;8.60;99.90;;;;;;5033714;28;20029;-83
2022/01/24 09:08:55;;;;;;;9.98;7.35;;;8.70;99.90;;;;;;5030681;28;20038;-81
2022/01/24 09:11:37;;;;;;;8.00;5.97;;;8.80;99.90;;;;;;5031251;28;20086;-83
2022/01/24 09:14:08;;;;;;;9.07;6.35;;;8.90;99.90;;;;;;5027664;28;20136;-82
2022/01/24 09:16:38;;;;;;;8.35;6.30;;;8.90;99.90;;;;;;5030618;28;20036;-83
2022/01/24 09:19:17;;;;;;;9.45;6.07;;;9.00;99.90;;;;;;4999251;28;20030;-83
2022/01/24 09:21:59;;;;;;;7.03;5.97;;;9.10;99.90;;;;;;5001428;28;20068;-83
2022/01/24 09:24:24;;;;;;;12.07;7.00;;;9.20;99.90;;;;;;5012461;28;20124;-83
2022/01/24 09:26:54;;;;;;;8.70;6.47;;;9.30;99.90;;;;;;5030271;28;20112;-83
2022/01/24 09:29:20;;;;;;;12.65;6.82;;;9.30;99.90;;;;;;5029966;28;20038;-83
2022/01/24 09:31:45;;;;;;;32.00;7.03;;;9.20;99.90;;;;;;5012437;28;20042;-84
2022/01/24 09:34:14;;;;;;;8.52;7.07;;;9.20;99.90;;;;;;5014925;28;20404;-86
2022/01/24 09:36:51;;;;;;;10.85;6.88;;;9.30;99.90;;;;;;5014610;28;20071;-89
2022/01/24 09:39:18;;;;;;;10.18;7.22;;;9.20;99.90;;;;;;5013476;28;20148;-85
2022/01/24 09:41:48;;;;;;;8.32;6.63;;;9.30;99.90;;;;;;5007837;28;20397;-84
2022/01/24 09:44:17;;;;;;;10.70;8.05;;;9.30;99.90;;;;;;5005810;28;20054;-83
2022/01/24 09:46:44;;;;;;;10.73;7.40;;;9.30;99.90;;;;;;5012627;28;20503;-85
2022/01/24 09:50:00;;;;;;;9.95;6.25;;;9.20;99.90;;;;;;5020483;28;20036;-84
2022/01/24 09:52:40;;;;;;;9.38;6.63;;;9.30;99.90;;;;;;5002457;28;20029;-84
2022/01/24 09:55:13;;;;;;;8.88;6.78;;;9.30;99.90;;;;;;4998547;28;20048;-83
2022/01/24 09:57:47;;;;;;;;;;;9.50;99.90;;;;;;5019395;28;20022;-82
2022/01/24 10:00:16;;;;;;;10.32;6.10;;;9.60;99.90;;;;;;5013122;28;19992;-82
2022/01/24 10:02:43;;;;;;;10.93;6.15;;;9.70;99.90;;;;;;5000054;28;20484;-83
2022/01/24 10:05:34;;;;;;;6.22;5.60;;;9.80;99.90;;;;;;5003083;28;20389;-82
2022/01/24 10:08:03;;;;;;;8.15;5.00;;;10.00;99.90;;;;;;5018060;28;20061;-83
2022/01/24 10:10:38;;;;;;;9.25;5.07;;;10.00;99.90;;;;;;5018831;28;20416;-82
2022/01/24 10:16:30;;;;;;;8.73;5.10;;;9.60;99.90;;;;;;5018957;28;20129;-83
2022/01/24 10:19:16;;;;;;;10.25;4.97;;;9.50;99.90;;;;;;5019926;28;20492;-84
2022/01/24 10:22:14;;;;;;;5.28;4.65;;;9.50;99.90;;;;;;5025542;28;20020;-83
2022/01/24 10:24:52;;;;;;;10.95;5.13;;;9.70;99.90;;;;;;4980418;28;20576;-84
2022/01/24 10:27:41;;;;;;;13.25;5.22;;;10.00;99.90;;;;;;5019840;28;20449;-82
2022/01/24 10:30:10;;;;;;;8.18;4.85;;;10.00;99.90;;;;;;5015775;28;20069;-83
2022/01/24 10:32:48;;;;;;;6.25;4.82;;;10.10;99.90;;;;;;5004974;28;20480;-82
2022/01/24 10:35:26;;;;;;;8.00;4.90;;;10.10;99.90;;;;;;5017054;28;20037;-83
2022/01/24 10:38:14;;;;;;;6.40;4.88;;;10.10;99.90;;;;;;5017801;28;20075;-83
2022/01/24 10:41:07;;;;;;;7.97;5.18;;;10.00;99.90;;;;;;5003355;28;20034;-83
2022/01/24 10:43:34;;;;;;;9.10;5.07;;;10.00;99.90;;;;;;5027323;28;20116;-82
2022/01/24 10:46:01;;;;;;;9.27;4.32;;;9.90;99.90;;;;;;5033474;28;20071;-83
2022/01/24 10:48:44;;;;;;;13.60;4.80;;;9.90;99.90;;;;;;5032282;28;20040;-82
2022/01/24 10:51:24;;;;;;;8.63;5.00;;;9.70;99.90;;;;;;5034691;28;20025;-83
2022/01/24 10:53:57;;;;;;;12.23;4.82;;;9.40;99.90;;;;;;5036510;28;20484;-82
2022/01/24 10:56:30;;;;;;;7.28;5.38;;;9.40;99.90;;;;;;5015434;28;20121;-82
2022/01/24 10:59:16;;;;;;;6.25;5.18;;;9.50;99.90;;;;;;5027552;28;20033;-83
2022/01/24 11:01:55;;;;;;;7.97;5.05;;;9.70;99.90;;;;;;5033262;28;20076;-83
2022/01/24 11:04:23;;;;;;;8.90;5.10;;;9.90;99.90;;;;;;5033067;28;20060;-83
2022/01/24 11:06:52;;;;;;;6.30;5.30;;;10.20;99.90;;;;;;5032694;28;20024;-83
2022/01/24 11:09:23;;;;;;;5.88;4.95;;;10.40;99.90;;;;;;5029668;28;20460;-83
2022/01/24 11:11:59;;;;;;;7.50;5.20;;;10.50;99.90;;;;;;5030694;28;20565;-82
2022/01/24 11:14:41;;;;;;;6.85;5.00;;;10.80;99.90;;;;;;5031555;28;20041;-83
2022/01/24 11:17:29;;;;;;;5.97;5.03;;;10.90;99.90;;;;;;5031181;28;20431;-83
2022/01/24 11:20:02;;;;;;;6.63;5.28;;;10.80;99.90;;;;;;5029958;28;20029;-87
2022/01/24 11:22:44;;;;;;;5.45;4.70;;;10.80;99.90;;;;;;5017333;28;20456;-84
2022/01/24 11:25:19;;;;;;;5.72;4.55;;;10.60;99.90;;;;;;5016944;28;20029;-88
2022/01/24 11:27:47;;;;;;;6.32;4.82;;;10.50;99.90;;;;;;5018871;28;20030;-87
2022/01/24 11:31:15;;;;;;;;;;;;;;;;;;;;;
2022/01/24 11:33:53;;;;;;;6.68;4.45;;;10.20;99.90;;;;;;5030250;28;20121;-91
2022/01/24 11:36:34;;;;;;;8.98;4.57;;;10.20;99.90;;;;;;4997145;28;20033;-86
2022/01/24 11:39:00;;;;;;;8.68;6.68;;;10.20;99.90;;;;;;5030545;28;20033;-89
2022/01/24 11:41:32;;;;;;;8.32;4.80;;;10.20;99.90;;;;;;5013498;28;20422;-86
2022/01/24 11:44:16;;;;;;;14.00;11.00;;;9.90;99.90;;;;;;5017289;28;20057;-88
2022/01/24 11:46:48;;;;;;;8.35;5.70;;;9.90;99.90;;;;;;5034543;28;20025;-87
2022/01/24 11:49:26;;;;;;;5.43;4.53;;;9.80;99.90;;;;;;5030556;28;20033;-89
2022/01/24 11:52:01;;;;;;;9.48;5.35;;;9.60;99.90;;;;;;5038344;28;20102;-82
2022/01/24 11:54:43;;;;;;;4.90;4.10;;;9.60;99.90;;;;;;5034230;28;20806;-83
2022/01/24 11:57:47;;;;;;;6.05;4.47;;;9.60;99.90;;;;;;5027097;28;20040;-87
2022/01/24 12:00:29;;;;;;;28.42;16.77;;;9.70;99.90;;;;;;5033232;28;20034;-83
2022/01/24 12:03:01;;;;;;;20.23;7.78;;;9.70;99.90;;;;;;5029659;28;20112;-83
2022/01/24 12:06:09;;;;;;;5.95;4.05;;;9.60;99.90;;;;;;5030716;28;20283;-83
2022/01/24 12:08:57;;;;;;;9.73;5.30;;;9.50;99.90;;;;;;5011360;28;20116;-84
2022/01/24 12:11:34;;;;;;;8.45;4.72;;;9.40;99.90;;;;;;5031094;28;20033;-84
2022/01/24 12:14:23;;;;;;;7.88;5.07;;;9.30;99.90;;;;;;5009967;28;20045;-84
2022/01/24 12:16:57;;;;;;;4.32;3.92;;;9.40;99.90;;;;;;5032180;28;20112;-84
2022/01/24 12:19:31;;;;;;;5.97;3.85;;;9.30;99.90;;;;;;5013319;28;20079;-85
2022/01/24 12:22:20;;;;;;;5.15;4.55;;;9.20;99.90;;;;;;5011154;28;20048;-84
2022/01/24 12:24:46;;;;;;;5.05;3.78;;;9.10;99.90;;;;;;5031034;28;20018;-84
2022/01/24 12:27:41;;;;;;;4.57;4.07;;;9.20;99.90;;;;;;5036358;28;20022;-83
2022/01/24 12:30:17;;;;;;;6.10;4.15;;;9.30;99.90;;;;;;5012974;28;20496;-84
2022/01/24 12:32:50;;;;;;;7.38;4.40;;;9.40;99.90;;;;;;5011675;28;20515;-85
2022/01/24 12:35:34;;;;;;;6.13;3.55;;;9.20;99.90;;;;;;5031903;28;20045;-84
2022/01/24 12:38:23;;;;;;;4.85;3.38;;;9.10;99.90;;;;;;5031899;28;20021;-84
2022/01/24 12:41:09;;;;;;;4.15;3.65;;;9.10;99.90;;;;;;5030309;28;20105;-84
2022/01/24 12:43:52;;;;;;;5.28;3.63;;;9.20;99.90;;;;;;5030727;28;20038;-85
2022/01/24 12:46:21;;;;;;;5.50;3.45;;;9.00;99.90;;;;;;5025799;28;20037;-85
2022/01/24 12:48:49;;;;;;;3.42;3.13;;;9.00;99.90;;;;;;5012617;28;20096;-85
2022/01/24 12:51:21;;;;;;;4.70;3.30;;;8.90;99.90;;;;;;5014044;28;20021;-85
2022/01/24 12:53:46;;;;;;;4.25;2.58;;;8.90;99.90;;;;;;5013721;28;20463;-84
2022/01/24 12:56:13;;;;;;;3.58;3.08;;;8.70;99.90;;;;;;5030461;28;20033;-84
2022/01/24 12:58:42;;;;;;;3.30;2.15;;;8.60;99.90;;;;;;5031680;28;20025;-84
2022/01/24 13:01:27;;;;;;;6.10;2.97;;;8.50;99.90;;;;;;5031788;28;20036;-84
2022/01/24 13:04:42;;;;;;;3.10;2.80;;;8.60;99.90;;;;;;5025914;28;20100;-84
2022/01/24 13:07:42;;;;;;;6.20;2.78;;;8.70;99.90;;;;;;5021088;28;20492;-84
2022/01/24 13:10:21;;;;;;;4.40;2.30;;;8.70;99.90;;;;;;5028144;28;20127;-84
2022/01/24 13:12:56;;;;;;;2.92;2.63;;;8.70;99.90;;;;;;5011360;28;20033;-83
2022/01/24 13:21:12;;;;;;;3.00;2.20;;;9.00;99.90;;;;;;5034387;28;20044;-84
2022/01/24 13:23:43;;;;;;;2.42;2.20;;;9.00;99.90;;;;;;5012675;28;20488;-84
2022/01/24 13:26:17;;;;;;;2.88;2.00;;;9.00;99.90;;;;;;5027921;28;20030;-84
2022/01/24 13:28:43;;;;;;;1.83;1.60;;;9.00;99.90;;;;;;5032190;28;20068;-85
2022/01/24 13:31:10;;;;;;;3.63;1.98;;;8.90;99.90;;;;;;5014220;28;20021;-85
2022/01/24 13:33:41;;;;;;;2.60;1.83;;;9.10;99.90;;;;;;5012601;28;20442;-89
2022/01/24 13:36:11;;;;;;;9.23;1.90;;;9.10;99.90;;;;;;5006247;28;20075;-82
2022/01/24 13:38:43;;;;;;;3.63;1.70;;;9.20;99.90;;;;;;5030057;28;20021;-83
2022/01/24 13:41:12;;;;;;;2.28;1.98;;;9.30;99.90;;;;;;5029724;28;20022;-82
2022/01/24 13:43:58;;;;;;;1.80;1.60;;;9.20;99.90;;;;;;5031278;28;20049;-81
2022/01/24 13:47:00;;;;;;;4.38;1.98;;;9.20;99.90;;;;;;5029005;28;20056;-85
2022/01/24 13:49:28;;;;;;;3.00;2.10;;;8.90;99.90;;;;;;5029402;28;20434;-85
2022/01/24 13:51:58;;;;;;;3.10;2.60;;;8.90;99.90;;;;;;5019426;28;20029;-85
2022/01/24 13:54:27;;;;;;;5.15;2.20;;;9.00;99.90;;;;;;5010342;28;20113;-83
2022/01/24 13:56:58;;;;;;;5.00;1.52;;;9.20;99.90;;;;;;5031146;28;20040;-84
2022/01/24 13:59:26;;;;;;;1.73;1.60;;;9.40;99.90;;;;;;5014830;28;20057;-84
2022/01/24 14:02:03;;;;;;;2.38;2.17;;;9.40;99.90;;;;;;5007627;28;20026;-85
2022/01/24 14:04:46;;;;;;;3.85;2.55;;;9.40;99.90;;;;;;5023394;28;20029;-86
2022/01/24 14:07:14;;;;;;;;;;;9.30;99.90;;;;;;5026652;28;20020;-82
2022/01/24 14:09:44;;;;;;;3.38;2.75;;;9.20;99.90;;;;;;5030362;28;20003;-83
2022/01/24 14:12:19;;;;;;;4.88;1.75;;;9.00;99.90;;;;;;5028994;28;20622;-83
2022/01/24 14:14:54;;;;;;;4.15;1.80;;;8.90;99.90;;;;;;5029641;28;20069;-84
2022/01/24 14:17:32;;;;;;;4.05;1.85;;;8.80;99.90;;;;;;5033039;28;20044;-84
2022/01/24 14:20:03;;;;;;;2.45;1.90;;;8.70;99.90;;;;;;5029224;28;20025;-83
2022/01/24 14:22:48;;;;;;;5.88;1.55;;;8.60;99.90;;;;;;5012475;28;20049;-82
2022/01/24 14:25:18;;;;;;;2.05;1.83;;;8.60;99.90;;;;;;5028371;28;20034;-83
2022/01/24 14:27:46;;;;;;;2.03;1.77;;;8.80;99.90;;;;;;5026338;28;20448;-84
2022/01/24 14:30:19;;;;;;;2.15;1.70;;;8.70;99.90;;;;;;5031135;28;20018;-84
2022/01/24 14:33:04;;;;;;;3.85;1.77;;;8.90;99.90;;;;;;5025782;28;20096;-84
2022/01/24 14:35:35;;;;;;;3.03;1.80;;;8.90;99.90;;;;;;5029341;28;20037;-84
2022/01/24 14:38:01;;;;;;;1.98;1.77;;;8.90;99.90;;;;;;5011894;28;20373;-83
2022/01/24 14:40:51;;;;;;;2.45;1.83;;;9.00;99.90;;;;;;5030177;28;20095;-84
2022/01/24 14:46:15;;;;;;;2.10;1.90;;;8.80;99.90;;;;;;5027134;28;20047;-83
2022/01/24 14:48:45;;;;;;;3.42;1.88;;;8.70;99.90;;;;;;5032026;28;20037;-84
2022/01/24 14:51:23;;;;;;;2.35;1.52;;;8.60;99.90;;;;;;5027692;28;20060;-82
2022/01/24 14:53:53;;;;;;;2.03;1.70;;;8.40;99.90;;;;;;5033289;28;20126;-83
2022/01/24 14:56:20;;;;;;;2.33;1.83;;;8.30;99.90;;;;;;5016235;28;20025;-83
2022/01/24 14:58:45;;;;;;;1.95;1.45;;;8.20;99.90;;;;;;5015337;28;20045;-85
2022/01/24 15:01:13;;;;;;;1.98;1.67;;;8.20;99.90;;;;;;5015682;28;20806;-83
2022/01/24 15:03:40;;;;;;;3.65;2.00;;;8.00;99.90;;;;;;5016437;28;20477;-83
2022/01/24 15:06:08;;;;;;;3.45;1.58;;;7.90;99.90;;;;;;5011183;28;20040;-84
2022/01/24 15:08:38;;;;;;;2.00;1.55;;;7.90;99.90;;;;;;5015072;28;20116;-84
2022/01/24 15:11:06;;;;;;;1.42;1.33;;;7.90;99.90;;;;;;5033758;28;20116;-84
2022/01/24 15:13:42;;;;;;;3.45;1.98;;;7.80;99.90;;;;;;5031854;28;20087;-84
2022/01/24 15:16:17;;;;;;;3.65;1.70;;;7.80;99.90;;;;;;5015016;28;20128;-85
2022/01/24 15:24:37;;;;;;;2.17;1.13;;;7.40;99.90;;;;;;5031772;28;20145;-83
2022/01/24 15:27:03;;;;;;;;;;;7.30;99.90;;;;;;5033409;28;20106;-83
2022/01/24 15:29:32;;;;;;;2.72;1.30;;;7.20;99.90;;;;;;5015172;28;19944;-85
2022/01/24 15:32:03;;;;;;;2.15;1.42;;;7.00;99.90;;;;;;5033952;28;20100;-85
2022/01/24 15:34:30;;;;;;;2.38;1.60;;;6.90;99.90;;;;;;5015020;28;20041;-85
2022/01/24 15:36:55;;;;;;;2.00;1.50;;;6.80;99.90;;;;;;5015443;28;20025;-84
2022/01/24 15:39:21;;;;;;;1.52;1.25;;;6.80;99.90;;;;;;5014292;28;20029;-83
2022/01/24 15:41:55;;;;;;;1.85;1.30;;;6.70;99.90;;;;;;5032736;28;20113;-83
2022/01/24 15:49:38;;;;;;;3.20;1.50;;;6.40;99.90;;;;;;5032623;28;20033;-82
2022/01/24 15:52:05;;;;;;;3.17;1.90;;;6.30;99.90;;;;;;5032429;28;20396;-82
2022/01/24 15:54:32;;;;;;;1.75;1.63;;;6.30;99.90;;;;;;5034777;28;20059;-82
2022/01/24 15:59:42;;;;;;;2.83;1.50;;;6.10;99.90;;;;;;5031354;28;20088;-83
2022/01/24 16:02:08;;;;;;;1.85;1.48;;;6.00;99.90;;;;;;5032116;28;20056;-84
2022/01/24 16:04:58;;;;;;;1.80;1.70;;;5.90;99.90;;;;;;5029216;28;20108;-84
2022/01/24 16:07:24;;;;;;;2.45;1.75;;;5.90;99.90;;;;;;5005399;28;20538;-84
2022/01/24 16:09:51;;;;;;;1.65;1.50;;;5.80;99.90;;;;;;5032166;28;20040;-84
2022/01/24 16:12:39;;;;;;;2.10;1.70;;;5.70;99.90;;;;;;5013037;28;20071;-83
2022/01/24 16:15:06;;;;;;;4.97;1.63;;;5.60;99.90;;;;;;5013073;28;20545;-83
2022/01/24 16:17:33;;;;;;;2.60;2.00;;;5.60;99.90;;;;;;5032718;28;20370;-82
2022/01/24 16:20:00;;;;;;;3.75;2.25;;;5.60;99.90;;;;;;5032298;28;20033;-83
2022/01/24 16:22:46;;;;;;;4.13;2.60;;;5.50;99.90;;;;;;5024413;28;20018;-86
2022/01/24 16:25:22;;;;;;;3.30;1.67;;;5.50;99.90;;;;;;5028906;28;20056;-81
2022/01/24 16:27:48;;;;;;;2.92;2.20;;;5.40;99.90;;;;;;5008838;28;20590;-82
2022/01/24 16:30:14;;;;;;;5.47;3.70;;;5.40;99.90;;;;;;5033987;28;20195;-82
2022/01/24 16:32:40;;;;;;;2.90;2.58;;;5.40;99.90;;;;;;5013547;28;20025;-82
2022/01/24 16:35:10;;;;;;;2.55;2.35;;;5.40;99.90;;;;;;5028458;28;20546;-82
2022/01/24 16:37:36;;;;;;;3.95;2.67;;;5.30;99.90;;;;;;5031816;28;20093;-81
2022/01/24 16:40:28;;;;;;;3.17;2.30;;;5.30;99.90;;;;;;5034300;28;20547;-81
2022/01/24 16:43:15;;;;;;;2.22;2.00;;;5.30;99.90;;;;;;5014481;28;20104;-83
2022/01/24 16:48:26;;;;;;;3.08;1.85;;;5.30;99.90;;;;;;5029973;28;20067;-86
2022/01/24 16:50:59;;;;;;;2.88;1.95;;;5.30;99.90;;;;;;5014183;28;20040;-83
2022/01/24 16:53:28;;;;;;;2.28;1.90;;;5.30;99.90;;;;;;5005958;28;20032;-82
2022/01/24 16:55:59;;;;;;;2.22;2.00;;;5.30;99.90;;;;;;5013946;28;20037;-84
2022/01/24 16:58:27;;;;;;;2.35;2.05;;;5.20;99.90;;;;;;5015730;28;20025;-84
2022/01/24 17:00:54;;;;;;;3.05;2.00;;;5.20;99.90;;;;;;5014061;28;20022;-81
2022/01/24 17:03:21;;;;;;;1.92;1.63;;;5.20;99.90;;;;;;5029371;28;20029;-85
2022/01/24 17:05:47;;;;;;;2.75;2.10;;;5.20;99.90;;;;;;5030412;28;20395;-81
2022/01/24 17:08:14;;;;;;;2.60;2.30;;;5.20;99.90;;;;;;5012086;28;20034;-80
2022/01/24 17:10:43;;;;;;;2.53;2.20;;;5.20;99.90;;;;;;5013187;28;20018;-84
2022/01/24 17:13:20;;;;;;;4.68;2.58;;;5.20;99.90;;;;;;5030773;28;20541;-85
2022/01/24 17:15:54;;;;;;;2.60;2.40;;;5.20;99.90;;;;;;5031201;28;20385;-81
2022/01/24 17:18:27;;;;;;;2.33;1.98;;;5.20;99.90;;;;;;5030008;28;20168;-84
2022/01/24 17:20:55;;;;;;;3.55;2.13;;;5.20;99.90;;;;;;5027833;28;20026;-84
2022/01/24 17:23:24;;;;;;;2.88;2.10;;;5.10;99.90;;;;;;5012805;28;20037;-83
2022/01/24 17:25:54;;;;;;;4.07;2.20;;;5.10;99.90;;;;;;5029081;28;20034;-82
2022/01/24 17:28:23;;;;;;;3.22;1.98;;;5.10;99.90;;;;;;5013144;28;20076;-82
2022/01/24 17:30:52;;;;;;;2.80;2.05;;;5.10;99.90;;;;;;5027730;28;20053;-84
2022/01/24 17:33:18;;;;;;;3.42;2.17;;;5.00;99.90;;;;;;5029293;28;20029;-83
2022/01/24 17:35:45;;;;;;;2.20;2.00;;;5.00;99.90;;;;;;5030358;28;20084;-84
2022/01/24 17:38:12;;;;;;;2.33;2.00;;;4.90;99.90;;;;;;5012403;28;20040;-84
2022/01/24 17:40:38;;;;;;;3.72;2.30;;;4.90;99.90;;;;;;5032451;28;20037;-84
2022/01/24 17:43:04;;;;;;;3.60;2.38;;;4.90;99.90;;;;;;5011211;28;20021;-86
2022/01/24 17:45:31;;;;;;;12.95;6.20;;;4.90;99.90;;;;;;5030832;28;20140;-83
2022/01/24 17:47:56;;;;;;;9.90;3.88;;;4.80;99.90;;;;;;5029628;28;20025;-83
2022/01/24 17:50:25;;;;;;;5.85;2.88;;;4.80;99.90;;;;;;5030828;28;20022;-83
2022/01/24 17:52:51;;;;;;;6.57;3.38;;;4.90;99.90;;;;;;5010989;28;20025;-83
2022/01/24 17:55:27;;;;;;;6.80;3.45;;;4.90;99.90;;;;;;5010072;28;20068;-83
2022/01/24 17:57:55;;;;;;;3.58;2.65;;;4.80;99.90;;;;;;5030431;28;20492;-82
2022/01/24 18:00:25;;;;;;;3.40;2.60;;;4.70;99.90;;;;;;5012761;28;20503;-82
2022/01/24 18:02:50;;;;;;;2.85;2.13;;;4.80;99.90;;;;;;5030381;28;20057;-82
2022/01/24 18:05:19;;;;;;;3.92;2.60;;;4.80;99.90;;;;;;5030687;28;20065;-82
2022/01/24 18:07:54;;;;;;;4.05;2.90;;;4.80;99.90;;;;;;5026125;28;20079;-83
2022/01/24 18:10:32;;;;;;;3.70;2.20;;;4.80;99.90;;;;;;5027246;28;20477;-83
2022/01/24 18:12:58;;;;;;;2.38;1.92;;;4.80;99.90;;;;;;5026373;28;20480;-83
2022/01/24 18:15:31;;;;;;;3.65;2.47;;;4.80;99.90;;;;;;5012345;28;20124;-83
2022/01/24 18:18:02;;;;;;;3.22;2.20;;;4.80;99.90;;;;;;5028607;28;20034;-83
2022/01/24 18:20:29;;;;;;;2.93;2.20;;;4.80;99.90;;;;;;5034426;28;20107;-82
2022/01/24 18:22:57;;;;;;;2.75;2.45;;;4.80;99.90;;;;;;5022358;28;20307;-82
2022/01/24 18:25:27;;;;;;;3.97;2.30;;;4.80;99.90;;;;;;5014241;28;20025;-82
2022/01/24 18:28:01;;;;;;;3.72;2.38;;;4.80;99.90;;;;;;5036739;28;20033;-82
2022/01/24 18:30:28;;;;;;;2.67;2.20;;;4.80;99.90;;;;;;5039086;28;20021;-82
2022/01/24 18:32:54;;;;;;;3.30;1.98;;;4.80;99.90;;;;;;5036633;28;20037;-82
2022/01/24 18:35:19;;;;;;;4.10;2.30;;;4.80;99.90;;;;;;5033626;28;20095;-82
2022/01/24 18:37:45;;;;;;;3.95;2.20;;;4.80;99.90;;;;;;5033869;28;20026;-83
2022/01/24 18:40:12;;;;;;;1.75;1.60;;;4.80;99.90;;;;;;5032541;28;20533;-81
2022/01/24 18:42:41;;;;;;;2.55;1.95;;;4.80;99.90;;;;;;5018298;28;20051;-82
2022/01/24 18:45:08;;;;;;;2.35;2.00;;;4.80;99.90;;;;;;5032945;28;20038;-82
2022/01/24 18:47:36;;;;;;;3.05;2.17;;;4.90;99.90;;;;;;5013853;28;20030;-82
2022/01/24 18:50:05;;;;;;;2.58;2.13;;;4.80;99.90;;;;;;5015806;28;20086;-82
2022/01/24 18:52:31;;;;;;;2.40;2.20;;;4.80;99.90;;;;;;5012098;28;20099;-82